sensor_id;sensor_type;location;lat;lon;timestamp;temperature;humidity
39103;DHT22;24847;48.218;16.414;2022-08-19T00:01:11;23.10;99.90
39103;DHT22;24847;48.218;16.414;2022-08-19T00:06:16;22.90;99.90
39103;DHT22;24847;48.218;16.414;2022-08-19T00:11:18;23.30;99.90
39103;DHT22;24847;48.218;16.414;2022-08-19T00:16:21;23.00;99.90
39103;DHT22;24847;48.218;16.414;2022-08-19T00:21:26;23.00;99.90
39103;DHT22;24847;48.218;16.414;2022-08-19T00:26:29;22.80;99.90
39103;DHT22;24847;48.218;16.414;2022-08-19T00:31:31;22.60;99.90
39103;DHT22;24847;48.218;16.414;2022-08-19T00:36:35;22.70;99.90
39103;DHT22;24847;48.218;16.414;2022-08-19T00:41:38;22.80;99.90
39103;DHT22;24847;48.218;16.414;2022-08-19T00:46:44;22.80;99.90
39103;DHT22;24847;48.218;16.414;2022-08-19T00:51:53;22.70;99.90
39103;DHT22;24847;48.218;16.414;2022-08-19T00:56:57;22.20;99.90
39103;DHT22;24847;48.218;16.414;2022-08-19T01:02:01;22.50;99.90
39103;DHT22;24847;48.218;16.414;2022-08-19T01:07:04;22.30;99.90
39103;DHT22;24847;48.218;16.414;2022-08-19T01:12:08;22.00;99.90
39103;DHT22;24847;48.218;16.414;2022-08-19T01:17:11;22.00;99.90
39103;DHT22;24847;48.218;16.414;2022-08-19T01:22:19;22.10;99.90
39103;DHT22;24847;48.218;16.414;2022-08-19T01:27:39;22.40;99.90
39103;DHT22;24847;48.218;16.414;2022-08-19T01:32:42;21.90;99.90
39103;DHT22;24847;48.218;16.414;2022-08-19T01:37:49;21.80;99.90
39103;DHT22;24847;48.218;16.414;2022-08-19T01:42:53;21.50;99.90
39103;DHT22;24847;48.218;16.414;2022-08-19T01:47:56;21.70;99.90
39103;DHT22;24847;48.218;16.414;2022-08-19T01:53:01;21.80;99.90
39103;DHT22;24847;48.218;16.414;2022-08-19T01:58:06;21.70;99.90
39103;DHT22;24847;48.218;16.414;2022-08-19T02:03:10;21.90;99.90
39103;DHT22;24847;48.218;16.414;2022-08-19T02:08:14;21.70;99.90
39103;DHT22;24847;48.218;16.414;2022-08-19T02:13:16;22.00;99.90
39103;DHT22;24847;48.218;16.414;2022-08-19T02:18:19;22.10;99.90
39103;DHT22;24847;48.218;16.414;2022-08-19T02:23:22;22.10;99.90
39103;DHT22;24847;48.218;16.414;2022-08-19T02:28:24;21.40;99.90
39103;DHT22;24847;48.218;16.414;2022-08-19T02:33:27;21.60;99.90
39103;DHT22;24847;48.218;16.414;2022-08-19T02:38:30;21.60;99.90
39103;DHT22;24847;48.218;16.414;2022-08-19T02:43:33;21.60;99.90
39103;DHT22;24847;48.218;16.414;2022-08-19T02:48:36;22.10;99.90
39103;DHT22;24847;48.218;16.414;2022-08-19T02:53:40;21.80;99.90
39103;DHT22;24847;48.218;16.414;2022-08-19T02:58:43;21.50;99.90
39103;DHT22;24847;48.218;16.414;2022-08-19T03:03:45;21.50;99.90
39103;DHT22;24847;48.218;16.414;2022-08-19T03:08:53;21.50;99.90
39103;DHT22;24847;48.218;16.414;2022-08-19T03:13:58;21.60;99.90
39103;DHT22;24847;48.218;16.414;2022-08-19T03:19:01;21.60;99.90
39103;DHT22;24847;48.218;16.414;2022-08-19T03:24:07;22.00;99.90
39103;DHT22;24847;48.218;16.414;2022-08-19T03:29:10;21.50;99.90
39103;DHT22;24847;48.218;16.414;2022-08-19T03:34:15;21.20;99.90
39103;DHT22;24847;48.218;16.414;2022-08-19T03:39:21;21.20;99.90
39103;DHT22;24847;48.218;16.414;2022-08-19T03:44:23;21.20;99.90
39103;DHT22;24847;48.218;16.414;2022-08-19T03:49:28;21.20;99.90
39103;DHT22;24847;48.218;16.414;2022-08-19T03:54:36;21.10;99.90
39103;DHT22;24847;48.218;16.414;2022-08-19T03:59:39;21.30;99.90
39103;DHT22;24847;48.218;16.414;2022-08-19T04:04:43;21.40;99.90
39103;DHT22;24847;48.218;16.414;2022-08-19T04:09:46;21.20;99.90
39103;DHT22;24847;48.218;16.414;2022-08-19T04:14:49;21.20;99.90
39103;DHT22;24847;48.218;16.414;2022-08-19T04:19:51;21.30;99.90
39103;DHT22;24847;48.218;16.414;2022-08-19T04:24:55;21.50;99.90
39103;DHT22;24847;48.218;16.414;2022-08-19T04:29:57;21.70;99.90
39103;DHT22;24847;48.218;16.414;2022-08-19T04:34:59;21.80;99.90
39103;DHT22;24847;48.218;16.414;2022-08-19T04:40:05;22.00;99.90
39103;DHT22;24847;48.218;16.414;2022-08-19T04:45:25;22.10;99.90
39103;DHT22;24847;48.218;16.414;2022-08-19T04:50:28;22.40;99.90
39103;DHT22;24847;48.218;16.414;2022-08-19T04:55:32;22.40;99.90
39103;DHT22;24847;48.218;16.414;2022-08-19T05:00:38;22.70;99.90
39103;DHT22;24847;48.218;16.414;2022-08-19T05:05:41;22.50;99.90
39103;DHT22;24847;48.218;16.414;2022-08-19T05:10:45;22.70;99.90
39103;DHT22;24847;48.218;16.414;2022-08-19T05:15:54;22.60;99.90
39103;DHT22;24847;48.218;16.414;2022-08-19T05:20:56;22.90;99.90
39103;DHT22;24847;48.218;16.414;2022-08-19T05:26:17;23.10;99.90
39103;DHT22;24847;48.218;16.414;2022-08-19T05:31:20;23.50;99.90
39103;DHT22;24847;48.218;16.414;2022-08-19T05:36:23;23.70;99.90
39103;DHT22;24847;48.218;16.414;2022-08-19T05:41:26;23.70;99.90
39103;DHT22;24847;48.218;16.414;2022-08-19T05:46:32;23.70;99.90
39103;DHT22;24847;48.218;16.414;2022-08-19T05:51:36;23.80;99.90
39103;DHT22;24847;48.218;16.414;2022-08-19T05:56:40;23.70;99.90
39103;DHT22;24847;48.218;16.414;2022-08-19T06:01:45;23.50;99.90
39103;DHT22;24847;48.218;16.414;2022-08-19T06:06:52;23.50;99.90
39103;DHT22;24847;48.218;16.414;2022-08-19T06:11:58;23.60;99.90
39103;DHT22;24847;48.218;16.414;2022-08-19T06:17:03;23.80;99.90
39103;DHT22;24847;48.218;16.414;2022-08-19T06:22:05;23.90;99.90
39103;DHT22;24847;48.218;16.414;2022-08-19T06:27:09;24.00;99.90
39103;DHT22;24847;48.218;16.414;2022-08-19T06:32:13;23.90;99.90
39103;DHT22;24847;48.218;16.414;2022-08-19T06:37:16;24.00;99.90
39103;DHT22;24847;48.218;16.414;2022-08-19T06:42:20;24.20;99.90
39103;DHT22;24847;48.218;16.414;2022-08-19T06:47:22;24.30;99.90
39103;DHT22;24847;48.218;16.414;2022-08-19T06:52:25;24.60;99.90
39103;DHT22;24847;48.218;16.414;2022-08-19T06:57:28;24.80;99.90
39103;DHT22;24847;48.218;16.414;2022-08-19T07:02:33;24.80;99.90
39103;DHT22;24847;48.218;16.414;2022-08-19T07:07:38;24.60;99.90
39103;DHT22;24847;48.218;16.414;2022-08-19T07:12:45;24.90;99.90
39103;DHT22;24847;48.218;16.414;2022-08-19T07:17:49;25.40;99.90
39103;DHT22;24847;48.218;16.414;2022-08-19T07:22:52;25.50;99.90
39103;DHT22;24847;48.218;16.414;2022-08-19T07:27:55;25.50;99.90
39103;DHT22;24847;48.218;16.414;2022-08-19T07:32:58;25.90;99.90
39103;DHT22;24847;48.218;16.414;2022-08-19T07:38:00;25.90;99.90
39103;DHT22;24847;48.218;16.414;2022-08-19T07:43:05;25.70;99.90
39103;DHT22;24847;48.218;16.414;2022-08-19T07:48:07;26.10;99.90
39103;DHT22;24847;48.218;16.414;2022-08-19T07:53:10;26.90;98.60
39103;DHT22;24847;48.218;16.414;2022-08-19T07:58:16;27.30;97.90
39103;DHT22;24847;48.218;16.414;2022-08-19T08:03:21;28.30;96.80
39103;DHT22;24847;48.218;16.414;2022-08-19T08:08:44;29.20;95.50
39103;DHT22;24847;48.218;16.414;2022-08-19T08:14:05;29.50;93.60
39103;DHT22;24847;48.218;16.414;2022-08-19T08:19:07;29.90;92.80
39103;DHT22;24847;48.218;16.414;2022-08-19T08:24:10;30.00;92.10
39103;DHT22;24847;48.218;16.414;2022-08-19T08:29:14;29.40;92.40
39103;DHT22;24847;48.218;16.414;2022-08-19T08:34:17;30.10;91.70
39103;DHT22;24847;48.218;16.414;2022-08-19T08:39:20;30.20;90.70
39103;DHT22;24847;48.218;16.414;2022-08-19T08:44:37;29.90;91.00
39103;DHT22;24847;48.218;16.414;2022-08-19T08:49:45;29.90;90.50
39103;DHT22;24847;48.218;16.414;2022-08-19T08:54:55;30.30;90.40
39103;DHT22;24847;48.218;16.414;2022-08-19T09:00:03;30.40;90.20
39103;DHT22;24847;48.218;16.414;2022-08-19T09:05:10;30.00;90.70
39103;DHT22;24847;48.218;16.414;2022-08-19T09:10:20;29.50;90.70
39103;DHT22;24847;48.218;16.414;2022-08-19T09:15:43;30.10;88.90
39103;DHT22;24847;48.218;16.414;2022-08-19T09:20:48;30.60;87.70
39103;DHT22;24847;48.218;16.414;2022-08-19T09:25:50;31.10;87.50
39103;DHT22;24847;48.218;16.414;2022-08-19T09:30:55;31.70;85.70
39103;DHT22;24847;48.218;16.414;2022-08-19T09:36:05;31.30;84.80
39103;DHT22;24847;48.218;16.414;2022-08-19T09:41:11;32.10;83.90
39103;DHT22;24847;48.218;16.414;2022-08-19T09:46:16;31.70;83.90
39103;DHT22;24847;48.218;16.414;2022-08-19T09:51:20;31.90;82.80
39103;DHT22;24847;48.218;16.414;2022-08-19T09:56:23;31.20;83.10
39103;DHT22;24847;48.218;16.414;2022-08-19T10:01:29;31.40;83.90
39103;DHT22;24847;48.218;16.414;2022-08-19T10:06:32;32.40;80.60
39103;DHT22;24847;48.218;16.414;2022-08-19T10:11:35;32.60;79.30
39103;DHT22;24847;48.218;16.414;2022-08-19T10:16:39;31.30;81.60
39103;DHT22;24847;48.218;16.414;2022-08-19T10:21:42;31.00;82.10
39103;DHT22;24847;48.218;16.414;2022-08-19T10:26:44;30.80;82.10
39103;DHT22;24847;48.218;16.414;2022-08-19T10:31:49;30.30;83.00
39103;DHT22;24847;48.218;16.414;2022-08-19T10:36:52;30.30;82.90
39103;DHT22;24847;48.218;16.414;2022-08-19T10:41:55;29.40;85.00
39103;DHT22;24847;48.218;16.414;2022-08-19T10:46:59;29.70;84.70
39103;DHT22;24847;48.218;16.414;2022-08-19T10:52:02;29.90;84.10
39103;DHT22;24847;48.218;16.414;2022-08-19T10:57:22;29.90;84.30
39103;DHT22;24847;48.218;16.414;2022-08-19T11:02:31;29.20;87.40
39103;DHT22;24847;48.218;16.414;2022-08-19T11:07:33;28.70;87.40
39103;DHT22;24847;48.218;16.414;2022-08-19T11:12:37;28.40;90.30
39103;DHT22;24847;48.218;16.414;2022-08-19T11:17:42;28.30;91.90
39103;DHT22;24847;48.218;16.414;2022-08-19T11:22:44;27.60;93.50
39103;DHT22;24847;48.218;16.414;2022-08-19T11:27:46;27.20;95.40
39103;DHT22;24847;48.218;16.414;2022-08-19T11:32:52;27.20;94.90
39103;DHT22;24847;48.218;16.414;2022-08-19T11:37:55;27.20;95.50
39103;DHT22;24847;48.218;16.414;2022-08-19T11:42:58;27.60;95.20
39103;DHT22;24847;48.218;16.414;2022-08-19T11:48:02;28.50;95.30
39103;DHT22;24847;48.218;16.414;2022-08-19T11:53:04;29.10;92.20
39103;DHT22;24847;48.218;16.414;2022-08-19T11:58:06;29.10;93.30
39103;DHT22;24847;48.218;16.414;2022-08-19T12:03:11;29.30;92.90
39103;DHT22;24847;48.218;16.414;2022-08-19T12:08:14;28.90;92.90
39103;DHT22;24847;48.218;16.414;2022-08-19T12:13:16;28.70;91.90
39103;DHT22;24847;48.218;16.414;2022-08-19T12:18:20;28.50;91.80
39103;DHT22;24847;48.218;16.414;2022-08-19T12:23:23;28.10;92.80
39103;DHT22;24847;48.218;16.414;2022-08-19T12:28:25;28.10;93.40
39103;DHT22;24847;48.218;16.414;2022-08-19T12:33:29;28.60;92.80
39103;DHT22;24847;48.218;16.414;2022-08-19T12:38:33;28.50;92.10
39103;DHT22;24847;48.218;16.414;2022-08-19T12:43:36;28.20;91.80
39103;DHT22;24847;48.218;16.414;2022-08-19T12:48:40;27.80;93.30
39103;DHT22;24847;48.218;16.414;2022-08-19T12:53:46;27.70;93.90
39103;DHT22;24847;48.218;16.414;2022-08-19T12:58:49;28.10;93.20
39103;DHT22;24847;48.218;16.414;2022-08-19T13:03:53;28.40;92.80
39103;DHT22;24847;48.218;16.414;2022-08-19T13:08:56;28.60;92.60
39103;DHT22;24847;48.218;16.414;2022-08-19T13:13:59;28.60;92.20
39103;DHT22;24847;48.218;16.414;2022-08-19T13:19:03;28.60;92.40
39103;DHT22;24847;48.218;16.414;2022-08-19T13:24:06;28.50;92.20
39103;DHT22;24847;48.218;16.414;2022-08-19T13:29:08;28.40;92.10
39103;DHT22;24847;48.218;16.414;2022-08-19T13:34:31;28.20;91.60
39103;DHT22;24847;48.218;16.414;2022-08-19T13:39:35;28.30;91.10
39103;DHT22;24847;48.218;16.414;2022-08-19T13:44:38;28.00;90.40
39103;DHT22;24847;48.218;16.414;2022-08-19T13:49:41;28.00;90.70
39103;DHT22;24847;48.218;16.414;2022-08-19T13:54:44;27.90;91.60
39103;DHT22;24847;48.218;16.414;2022-08-19T13:59:46;27.60;91.60
39103;DHT22;24847;48.218;16.414;2022-08-19T14:04:50;27.50;91.50
39103;DHT22;24847;48.218;16.414;2022-08-19T14:09:52;27.60;91.20
39103;DHT22;24847;48.218;16.414;2022-08-19T14:14:54;27.70;92.00
39103;DHT22;24847;48.218;16.414;2022-08-19T14:19:58;27.90;92.00
39103;DHT22;24847;48.218;16.414;2022-08-19T14:25:09;27.90;92.10
39103;DHT22;24847;48.218;16.414;2022-08-19T14:30:16;27.90;92.30
39103;DHT22;24847;48.218;16.414;2022-08-19T14:35:22;28.00;91.80
39103;DHT22;24847;48.218;16.414;2022-08-19T14:40:27;27.90;92.20
39103;DHT22;24847;48.218;16.414;2022-08-19T14:45:31;27.90;92.00
39103;DHT22;24847;48.218;16.414;2022-08-19T14:50:35;27.80;92.10
39103;DHT22;24847;48.218;16.414;2022-08-19T14:55:41;27.70;92.30
39103;DHT22;24847;48.218;16.414;2022-08-19T15:00:44;27.70;92.20
39103;DHT22;24847;48.218;16.414;2022-08-19T15:05:47;27.90;92.00
39103;DHT22;24847;48.218;16.414;2022-08-19T15:10:49;28.00;91.90
39103;DHT22;24847;48.218;16.414;2022-08-19T15:15:52;27.90;91.90
39103;DHT22;24847;48.218;16.414;2022-08-19T15:20:56;27.40;92.10
39103;DHT22;24847;48.218;16.414;2022-08-19T15:25:58;27.50;92.10
39103;DHT22;24847;48.218;16.414;2022-08-19T15:31:00;26.80;93.20
39103;DHT22;24847;48.218;16.414;2022-08-19T15:36:05;26.70;92.10
39103;DHT22;24847;48.218;16.414;2022-08-19T15:41:15;26.70;92.80
39103;DHT22;24847;48.218;16.414;2022-08-19T15:46:27;26.60;92.40
39103;DHT22;24847;48.218;16.414;2022-08-19T15:51:34;26.50;92.30
39103;DHT22;24847;48.218;16.414;2022-08-19T15:56:37;26.40;92.10
39103;DHT22;24847;48.218;16.414;2022-08-19T16:01:57;26.50;92.00
39103;DHT22;24847;48.218;16.414;2022-08-19T16:07:18;26.40;91.70
39103;DHT22;24847;48.218;16.414;2022-08-19T16:12:20;26.40;91.90
39103;DHT22;24847;48.218;16.414;2022-08-19T16:17:27;26.40;92.00
39103;DHT22;24847;48.218;16.414;2022-08-19T16:22:31;26.30;92.20
39103;DHT22;24847;48.218;16.414;2022-08-19T16:27:34;26.20;92.20
39103;DHT22;24847;48.218;16.414;2022-08-19T16:32:41;26.20;93.00
39103;DHT22;24847;48.218;16.414;2022-08-19T16:37:45;26.30;92.30
39103;DHT22;24847;48.218;16.414;2022-08-19T16:42:48;26.30;92.40
39103;DHT22;24847;48.218;16.414;2022-08-19T16:47:51;26.20;92.30
39103;DHT22;24847;48.218;16.414;2022-08-19T16:52:54;26.20;92.20
39103;DHT22;24847;48.218;16.414;2022-08-19T16:57:59;26.40;92.30
39103;DHT22;24847;48.218;16.414;2022-08-19T17:03:05;26.30;92.40
39103;DHT22;24847;48.218;16.414;2022-08-19T17:08:11;26.20;92.90
39103;DHT22;24847;48.218;16.414;2022-08-19T17:13:16;26.20;93.10
39103;DHT22;24847;48.218;16.414;2022-08-19T17:18:20;26.10;92.80
39103;DHT22;24847;48.218;16.414;2022-08-19T17:23:24;25.80;92.80
39103;DHT22;24847;48.218;16.414;2022-08-19T17:28:28;26.00;92.90
39103;DHT22;24847;48.218;16.414;2022-08-19T17:33:30;26.00;92.70
39103;DHT22;24847;48.218;16.414;2022-08-19T17:38:34;25.80;93.20
39103;DHT22;24847;48.218;16.414;2022-08-19T17:43:37;25.80;93.80
39103;DHT22;24847;48.218;16.414;2022-08-19T17:48:40;25.70;93.80
39103;DHT22;24847;48.218;16.414;2022-08-19T17:53:44;25.70;93.70
39103;DHT22;24847;48.218;16.414;2022-08-19T17:58:46;25.50;94.00
39103;DHT22;24847;48.218;16.414;2022-08-19T18:03:48;25.50;94.40
39103;DHT22;24847;48.218;16.414;2022-08-19T18:08:52;25.30;94.80
39103;DHT22;24847;48.218;16.414;2022-08-19T18:13:54;25.20;95.20
39103;DHT22;24847;48.218;16.414;2022-08-19T18:18:57;25.20;95.70
39103;DHT22;24847;48.218;16.414;2022-08-19T18:24:01;25.40;95.50
39103;DHT22;24847;48.218;16.414;2022-08-19T18:29:03;25.50;95.90
39103;DHT22;24847;48.218;16.414;2022-08-19T18:34:06;25.60;95.60
39103;DHT22;24847;48.218;16.414;2022-08-19T18:39:11;25.60;95.50
39103;DHT22;24847;48.218;16.414;2022-08-19T18:44:30;25.90;95.30
39103;DHT22;24847;48.218;16.414;2022-08-19T18:49:50;25.90;94.80
39103;DHT22;24847;48.218;16.414;2022-08-19T18:54:53;26.00;94.70
39103;DHT22;24847;48.218;16.414;2022-08-19T18:59:56;25.80;94.90
39103;DHT22;24847;48.218;16.414;2022-08-19T19:04:58;25.20;95.90
39103;DHT22;24847;48.218;16.414;2022-08-19T19:10:02;25.00;97.10
39103;DHT22;24847;48.218;16.414;2022-08-19T19:15:06;25.00;97.10
39103;DHT22;24847;48.218;16.414;2022-08-19T19:20:08;25.30;97.20
39103;DHT22;24847;48.218;16.414;2022-08-19T19:25:12;25.40;96.80
39103;DHT22;24847;48.218;16.414;2022-08-19T19:30:14;25.50;96.80
39103;DHT22;24847;48.218;16.414;2022-08-19T19:35:17;25.00;97.60
39103;DHT22;24847;48.218;16.414;2022-08-19T19:40:20;25.00;97.40
39103;DHT22;24847;48.218;16.414;2022-08-19T19:45:23;24.90;97.60
39103;DHT22;24847;48.218;16.414;2022-08-19T19:50:26;25.40;97.00
39103;DHT22;24847;48.218;16.414;2022-08-19T19:55:31;25.50;96.00
39103;DHT22;24847;48.218;16.414;2022-08-19T20:00:34;25.40;95.70
39103;DHT22;24847;48.218;16.414;2022-08-19T20:05:36;25.40;95.70
39103;DHT22;24847;48.218;16.414;2022-08-19T20:10:41;25.30;96.10
39103;DHT22;24847;48.218;16.414;2022-08-19T20:15:45;25.10;96.60
39103;DHT22;24847;48.218;16.414;2022-08-19T20:20:48;25.10;97.50
39103;DHT22;24847;48.218;16.414;2022-08-19T20:25:52;25.10;97.80
39103;DHT22;24847;48.218;16.414;2022-08-19T20:30:55;25.10;98.50
39103;DHT22;24847;48.218;16.414;2022-08-19T20:35:58;25.00;99.10
39103;DHT22;24847;48.218;16.414;2022-08-19T20:41:02;25.00;99.80
39103;DHT22;24847;48.218;16.414;2022-08-19T20:46:04;24.70;99.90
39103;DHT22;24847;48.218;16.414;2022-08-19T20:51:06;24.00;99.90
39103;DHT22;24847;48.218;16.414;2022-08-19T20:56:11;23.70;99.90
39103;DHT22;24847;48.218;16.414;2022-08-19T21:01:13;24.20;99.90
39103;DHT22;24847;48.218;16.414;2022-08-19T21:06:15;24.50;99.90
39103;DHT22;24847;48.218;16.414;2022-08-19T21:11:19;24.50;99.90
39103;DHT22;24847;48.218;16.414;2022-08-19T21:16:22;24.10;99.90
39103;DHT22;24847;48.218;16.414;2022-08-19T21:21:25;24.20;99.90
39103;DHT22;24847;48.218;16.414;2022-08-19T21:26:28;24.40;99.90
39103;DHT22;24847;48.218;16.414;2022-08-19T21:31:31;23.70;99.90
39103;DHT22;24847;48.218;16.414;2022-08-19T21:36:33;23.90;99.90
39103;DHT22;24847;48.218;16.414;2022-08-19T21:41:37;23.60;99.90
39103;DHT22;24847;48.218;16.414;2022-08-19T21:46:40;23.50;99.90
39103;DHT22;24847;48.218;16.414;2022-08-19T21:51:43;23.50;99.90
39103;DHT22;24847;48.218;16.414;2022-08-19T21:56:46;23.50;99.90
39103;DHT22;24847;48.218;16.414;2022-08-19T22:01:50;23.20;99.90
39103;DHT22;24847;48.218;16.414;2022-08-19T22:06:52;23.00;99.90
39103;DHT22;24847;48.218;16.414;2022-08-19T22:11:56;23.00;99.90
39103;DHT22;24847;48.218;16.414;2022-08-19T22:16:58;23.00;99.90
39103;DHT22;24847;48.218;16.414;2022-08-19T22:22:01;22.70;99.90
39103;DHT22;24847;48.218;16.414;2022-08-19T22:27:05;22.40;99.90
39103;DHT22;24847;48.218;16.414;2022-08-19T22:32:07;22.80;99.90
39103;DHT22;24847;48.218;16.414;2022-08-19T22:37:09;22.60;99.90
39103;DHT22;24847;48.218;16.414;2022-08-19T22:42:16;22.50;99.90
39103;DHT22;24847;48.218;16.414;2022-08-19T22:47:20;22.30;99.90
39103;DHT22;24847;48.218;16.414;2022-08-19T22:52:22;22.70;99.90
39103;DHT22;24847;48.218;16.414;2022-08-19T22:57:26;22.80;99.90
39103;DHT22;24847;48.218;16.414;2022-08-19T23:02:31;22.60;99.90
39103;DHT22;24847;48.218;16.414;2022-08-19T23:07:38;22.30;99.90
39103;DHT22;24847;48.218;16.414;2022-08-19T23:12:45;22.50;99.90
39103;DHT22;24847;48.218;16.414;2022-08-19T23:17:49;22.20;99.90
39103;DHT22;24847;48.218;16.414;2022-08-19T23:22:52;22.60;99.90
39103;DHT22;24847;48.218;16.414;2022-08-19T23:27:57;22.40;99.90
39103;DHT22;24847;48.218;16.414;2022-08-19T23:33:19;22.10;99.90
39103;DHT22;24847;48.218;16.414;2022-08-19T23:38:25;22.40;99.90
39103;DHT22;24847;48.218;16.414;2022-08-19T23:43:30;22.40;99.90
39103;DHT22;24847;48.218;16.414;2022-08-19T23:48:34;22.80;99.90
39103;DHT22;24847;48.218;16.414;2022-08-19T23:53:37;22.50;99.90
39103;DHT22;24847;48.218;16.414;2022-08-19T23:58:41;22.40;99.90
